sensor_id;sensor_type;location;lat;lon;timestamp;pressure;altitude;pressure_sealevel;temperature
29423;BMP180;16399;51.686;8.684;2022-10-19T00:00:46;101113.00;;;7.80
29423;BMP180;16399;51.686;8.684;2022-10-19T00:03:51;101117.00;;;7.70
29423;BMP180;16399;51.686;8.684;2022-10-19T00:06:53;101122.00;;;7.70
29423;BMP180;16399;51.686;8.684;2022-10-19T00:09:55;101110.00;;;7.70
29423;BMP180;16399;51.686;8.684;2022-10-19T00:12:58;101109.00;;;7.70
29423;BMP180;16399;51.686;8.684;2022-10-19T00:16:01;101105.00;;;7.60
29423;BMP180;16399;51.686;8.684;2022-10-19T00:19:07;101111.00;;;7.50
29423;BMP180;16399;51.686;8.684;2022-10-19T00:22:10;101101.00;;;7.50
29423;BMP180;16399;51.686;8.684;2022-10-19T00:25:12;101112.00;;;7.40
29423;BMP180;16399;51.686;8.684;2022-10-19T00:28:14;101105.00;;;7.40
29423;BMP180;16399;51.686;8.684;2022-10-19T00:31:17;101114.00;;;7.40
29423;BMP180;16399;51.686;8.684;2022-10-19T00:34:19;101110.00;;;7.30
29423;BMP180;16399;51.686;8.684;2022-10-19T00:37:21;101112.00;;;7.30
29423;BMP180;16399;51.686;8.684;2022-10-19T00:40:24;101119.00;;;7.30
29423;BMP180;16399;51.686;8.684;2022-10-19T00:43:29;101109.00;;;7.30
29423;BMP180;16399;51.686;8.684;2022-10-19T00:46:37;101110.00;;;7.20
29423;BMP180;16399;51.686;8.684;2022-10-19T00:49:41;101118.00;;;7.20
29423;BMP180;16399;51.686;8.684;2022-10-19T00:52:46;101111.00;;;7.30
29423;BMP180;16399;51.686;8.684;2022-10-19T00:55:48;101120.00;;;7.30
29423;BMP180;16399;51.686;8.684;2022-10-19T00:58:50;101113.00;;;7.30
29423;BMP180;16399;51.686;8.684;2022-10-19T01:01:53;101106.00;;;7.30
29423;BMP180;16399;51.686;8.684;2022-10-19T01:04:56;101111.00;;;7.30
29423;BMP180;16399;51.686;8.684;2022-10-19T01:08:00;101096.00;;;7.30
29423;BMP180;16399;51.686;8.684;2022-10-19T01:18:17;101094.00;;;7.30
29423;BMP180;16399;51.686;8.684;2022-10-19T01:21:22;101102.00;;;7.30
29423;BMP180;16399;51.686;8.684;2022-10-19T01:27:57;101094.00;;;7.30
29423;BMP180;16399;51.686;8.684;2022-10-19T01:30:58;101092.00;;;7.30
29423;BMP180;16399;51.686;8.684;2022-10-19T01:34:22;101096.00;;;7.30
29423;BMP180;16399;51.686;8.684;2022-10-19T01:37:23;101109.00;;;7.30
29423;BMP180;16399;51.686;8.684;2022-10-19T01:40:27;101111.00;;;7.40
29423;BMP180;16399;51.686;8.684;2022-10-19T01:43:54;101116.00;;;7.40
29423;BMP180;16399;51.686;8.684;2022-10-19T01:46:59;101111.00;;;7.40
29423;BMP180;16399;51.686;8.684;2022-10-19T01:53:11;101104.00;;;7.50
29423;BMP180;16399;51.686;8.684;2022-10-19T01:56:17;101090.00;;;7.50
29423;BMP180;16399;51.686;8.684;2022-10-19T01:59:20;101087.00;;;7.50
29423;BMP180;16399;51.686;8.684;2022-10-19T02:02:25;101092.00;;;7.50
29423;BMP180;16399;51.686;8.684;2022-10-19T02:05:31;101089.00;;;7.50
29423;BMP180;16399;51.686;8.684;2022-10-19T02:08:37;101091.00;;;7.50
29423;BMP180;16399;51.686;8.684;2022-10-19T02:11:39;101091.00;;;7.50
29423;BMP180;16399;51.686;8.684;2022-10-19T02:14:46;101093.00;;;7.50
29423;BMP180;16399;51.686;8.684;2022-10-19T02:17:52;101104.00;;;7.50
29423;BMP180;16399;51.686;8.684;2022-10-19T02:20:58;101094.00;;;7.50
29423;BMP180;16399;51.686;8.684;2022-10-19T02:24:01;101082.00;;;7.50
29423;BMP180;16399;51.686;8.684;2022-10-19T02:27:05;101099.00;;;7.50
29423;BMP180;16399;51.686;8.684;2022-10-19T02:30:11;101105.00;;;7.50
29423;BMP180;16399;51.686;8.684;2022-10-19T02:33:14;101093.00;;;7.60
29423;BMP180;16399;51.686;8.684;2022-10-19T02:36:17;101092.00;;;7.60
29423;BMP180;16399;51.686;8.684;2022-10-19T02:39:20;101084.00;;;7.60
29423;BMP180;16399;51.686;8.684;2022-10-19T02:42:27;101100.00;;;7.60
29423;BMP180;16399;51.686;8.684;2022-10-19T02:45:35;101092.00;;;7.60
29423;BMP180;16399;51.686;8.684;2022-10-19T02:48:34;101100.00;;;7.60
29423;BMP180;16399;51.686;8.684;2022-10-19T02:51:45;101102.00;;;7.60
29423;BMP180;16399;51.686;8.684;2022-10-19T02:54:44;101100.00;;;7.60
29423;BMP180;16399;51.686;8.684;2022-10-19T02:57:46;101087.00;;;7.60
29423;BMP180;16399;51.686;8.684;2022-10-19T03:00:48;101100.00;;;7.60
29423;BMP180;16399;51.686;8.684;2022-10-19T03:03:51;101103.00;;;7.50
29423;BMP180;16399;51.686;8.684;2022-10-19T03:06:53;101096.00;;;7.50
29423;BMP180;16399;51.686;8.684;2022-10-19T03:09:55;101088.00;;;7.50
29423;BMP180;16399;51.686;8.684;2022-10-19T03:12:57;101081.00;;;7.50
29423;BMP180;16399;51.686;8.684;2022-10-19T03:16:08;101086.00;;;7.40
29423;BMP180;16399;51.686;8.684;2022-10-19T03:19:11;101087.00;;;7.40
29423;BMP180;16399;51.686;8.684;2022-10-19T03:22:13;101079.00;;;7.40
29423;BMP180;16399;51.686;8.684;2022-10-19T03:25:16;101083.00;;;7.40
29423;BMP180;16399;51.686;8.684;2022-10-19T03:28:18;101075.00;;;7.40
29423;BMP180;16399;51.686;8.684;2022-10-19T03:31:20;101090.00;;;7.40
29423;BMP180;16399;51.686;8.684;2022-10-19T03:34:22;101084.00;;;7.30
29423;BMP180;16399;51.686;8.684;2022-10-19T03:37:25;101083.00;;;7.30
29423;BMP180;16399;51.686;8.684;2022-10-19T03:40:27;101093.00;;;7.20
29423;BMP180;16399;51.686;8.684;2022-10-19T03:43:29;101101.00;;;7.20
29423;BMP180;16399;51.686;8.684;2022-10-19T03:46:32;101095.00;;;7.10
29423;BMP180;16399;51.686;8.684;2022-10-19T03:49:35;101093.00;;;7.10
29423;BMP180;16399;51.686;8.684;2022-10-19T03:52:38;101107.00;;;7.10
29423;BMP180;16399;51.686;8.684;2022-10-19T03:55:40;101096.00;;;7.20
29423;BMP180;16399;51.686;8.684;2022-10-19T03:58:44;101100.00;;;7.20
29423;BMP180;16399;51.686;8.684;2022-10-19T04:01:46;101100.00;;;7.20
29423;BMP180;16399;51.686;8.684;2022-10-19T04:04:49;101094.00;;;7.20
29423;BMP180;16399;51.686;8.684;2022-10-19T04:07:51;101092.00;;;7.20
29423;BMP180;16399;51.686;8.684;2022-10-19T04:11:01;101084.00;;;7.20
29423;BMP180;16399;51.686;8.684;2022-10-19T04:14:04;101094.00;;;7.20
29423;BMP180;16399;51.686;8.684;2022-10-19T04:17:06;101090.00;;;7.20
29423;BMP180;16399;51.686;8.684;2022-10-19T04:20:09;101086.00;;;7.10
29423;BMP180;16399;51.686;8.684;2022-10-19T04:23:12;101094.00;;;7.10
29423;BMP180;16399;51.686;8.684;2022-10-19T04:26:14;101094.00;;;7.00
29423;BMP180;16399;51.686;8.684;2022-10-19T04:29:18;101096.00;;;7.00
29423;BMP180;16399;51.686;8.684;2022-10-19T04:32:21;101105.00;;;7.00
29423;BMP180;16399;51.686;8.684;2022-10-19T04:35:23;101093.00;;;7.00
29423;BMP180;16399;51.686;8.684;2022-10-19T04:38:26;101094.00;;;7.00
29423;BMP180;16399;51.686;8.684;2022-10-19T04:41:28;101101.00;;;7.00
29423;BMP180;16399;51.686;8.684;2022-10-19T04:44:30;101093.00;;;7.00
29423;BMP180;16399;51.686;8.684;2022-10-19T04:47:33;101100.00;;;7.00
29423;BMP180;16399;51.686;8.684;2022-10-19T04:50:35;101103.00;;;7.10
29423;BMP180;16399;51.686;8.684;2022-10-19T04:53:39;101104.00;;;7.10
29423;BMP180;16399;51.686;8.684;2022-10-19T04:56:41;101106.00;;;7.20
29423;BMP180;16399;51.686;8.684;2022-10-19T04:59:45;101096.00;;;7.20
29423;BMP180;16399;51.686;8.684;2022-10-19T05:02:47;101107.00;;;7.30
29423;BMP180;16399;51.686;8.684;2022-10-19T05:05:50;101110.00;;;7.30
29423;BMP180;16399;51.686;8.684;2022-10-19T05:08:52;101109.00;;;7.40
29423;BMP180;16399;51.686;8.684;2022-10-19T05:11:55;101111.00;;;7.40
29423;BMP180;16399;51.686;8.684;2022-10-19T05:14:57;101104.00;;;7.40
29423;BMP180;16399;51.686;8.684;2022-10-19T05:18:00;101101.00;;;7.50
29423;BMP180;16399;51.686;8.684;2022-10-19T05:21:05;101090.00;;;7.50
29423;BMP180;16399;51.686;8.684;2022-10-19T05:24:10;101094.00;;;7.50
29423;BMP180;16399;51.686;8.684;2022-10-19T05:27:14;101078.00;;;7.50
29423;BMP180;16399;51.686;8.684;2022-10-19T05:30:16;101083.00;;;7.50
29423;BMP180;16399;51.686;8.684;2022-10-19T05:33:18;101083.00;;;7.50
29423;BMP180;16399;51.686;8.684;2022-10-19T05:36:30;101079.00;;;7.50
29423;BMP180;16399;51.686;8.684;2022-10-19T05:39:28;101073.00;;;7.50
29423;BMP180;16399;51.686;8.684;2022-10-19T05:42:31;101079.00;;;7.50
29423;BMP180;16399;51.686;8.684;2022-10-19T05:45:33;101061.00;;;7.50
29423;BMP180;16399;51.686;8.684;2022-10-19T05:48:36;101071.00;;;7.60
29423;BMP180;16399;51.686;8.684;2022-10-19T05:51:39;101066.00;;;7.60
29423;BMP180;16399;51.686;8.684;2022-10-19T05:54:41;101073.00;;;7.60
29423;BMP180;16399;51.686;8.684;2022-10-19T05:57:44;101070.00;;;7.60
29423;BMP180;16399;51.686;8.684;2022-10-19T06:00:53;101069.00;;;7.60
29423;BMP180;16399;51.686;8.684;2022-10-19T06:03:57;101071.00;;;7.60
29423;BMP180;16399;51.686;8.684;2022-10-19T06:07:00;101070.00;;;7.70
29423;BMP180;16399;51.686;8.684;2022-10-19T06:10:02;101062.00;;;7.70
29423;BMP180;16399;51.686;8.684;2022-10-19T06:13:05;101069.00;;;7.80
29423;BMP180;16399;51.686;8.684;2022-10-19T06:16:09;101077.00;;;7.80
29423;BMP180;16399;51.686;8.684;2022-10-19T06:19:11;101078.00;;;7.80
29423;BMP180;16399;51.686;8.684;2022-10-19T06:22:14;101080.00;;;7.90
29423;BMP180;16399;51.686;8.684;2022-10-19T06:25:16;101085.00;;;7.90
29423;BMP180;16399;51.686;8.684;2022-10-19T06:28:18;101084.00;;;8.00
29423;BMP180;16399;51.686;8.684;2022-10-19T06:31:21;101087.00;;;8.10
29423;BMP180;16399;51.686;8.684;2022-10-19T06:34:23;101079.00;;;8.20
29423;BMP180;16399;51.686;8.684;2022-10-19T06:37:25;101086.00;;;8.20
29423;BMP180;16399;51.686;8.684;2022-10-19T06:40:27;101084.00;;;8.30
29423;BMP180;16399;51.686;8.684;2022-10-19T06:43:30;101085.00;;;8.40
29423;BMP180;16399;51.686;8.684;2022-10-19T06:46:32;101084.00;;;8.40
29423;BMP180;16399;51.686;8.684;2022-10-19T06:49:35;101084.00;;;8.50
29423;BMP180;16399;51.686;8.684;2022-10-19T06:52:37;101090.00;;;8.60
29423;BMP180;16399;51.686;8.684;2022-10-19T06:55:40;101085.00;;;8.70
29423;BMP180;16399;51.686;8.684;2022-10-19T06:58:43;101078.00;;;8.70
29423;BMP180;16399;51.686;8.684;2022-10-19T07:01:45;101086.00;;;8.80
29423;BMP180;16399;51.686;8.684;2022-10-19T07:04:47;101089.00;;;8.90
29423;BMP180;16399;51.686;8.684;2022-10-19T07:07:50;101090.00;;;9.00
29423;BMP180;16399;51.686;8.684;2022-10-19T07:10:54;101105.00;;;9.10
29423;BMP180;16399;51.686;8.684;2022-10-19T07:13:56;101094.00;;;9.10
29423;BMP180;16399;51.686;8.684;2022-10-19T07:16:58;101092.00;;;9.20
29423;BMP180;16399;51.686;8.684;2022-10-19T07:20:01;101087.00;;;9.20
29423;BMP180;16399;51.686;8.684;2022-10-19T07:23:04;101083.00;;;9.30
29423;BMP180;16399;51.686;8.684;2022-10-19T07:26:11;101092.00;;;9.40
29423;BMP180;16399;51.686;8.684;2022-10-19T07:29:12;101090.00;;;9.50
29423;BMP180;16399;51.686;8.684;2022-10-19T07:32:14;101088.00;;;9.60
29423;BMP180;16399;51.686;8.684;2022-10-19T07:35:17;101093.00;;;9.70
29423;BMP180;16399;51.686;8.684;2022-10-19T07:38:19;101085.00;;;9.80
29423;BMP180;16399;51.686;8.684;2022-10-19T07:41:23;101092.00;;;9.90
29423;BMP180;16399;51.686;8.684;2022-10-19T07:44:26;101084.00;;;10.00
29423;BMP180;16399;51.686;8.684;2022-10-19T07:47:28;101088.00;;;10.10
29423;BMP180;16399;51.686;8.684;2022-10-19T07:50:30;101076.00;;;10.10
29423;BMP180;16399;51.686;8.684;2022-10-19T07:53:34;101090.00;;;10.20
29423;BMP180;16399;51.686;8.684;2022-10-19T07:56:37;101084.00;;;10.30
29423;BMP180;16399;51.686;8.684;2022-10-19T07:59:39;101072.00;;;10.40
29423;BMP180;16399;51.686;8.684;2022-10-19T08:02:42;101072.00;;;10.40
29423;BMP180;16399;51.686;8.684;2022-10-19T08:05:44;101059.00;;;10.60
29423;BMP180;16399;51.686;8.684;2022-10-19T08:08:48;101069.00;;;10.80
29423;BMP180;16399;51.686;8.684;2022-10-19T08:11:51;101064.00;;;11.00
29423;BMP180;16399;51.686;8.684;2022-10-19T08:14:53;101059.00;;;11.10
29423;BMP180;16399;51.686;8.684;2022-10-19T08:17:56;101071.00;;;11.10
29423;BMP180;16399;51.686;8.684;2022-10-19T08:21:00;101066.00;;;11.30
29423;BMP180;16399;51.686;8.684;2022-10-19T08:24:03;101073.00;;;11.50
29423;BMP180;16399;51.686;8.684;2022-10-19T08:27:06;101068.00;;;11.60
29423;BMP180;16399;51.686;8.684;2022-10-19T08:30:08;101070.00;;;11.70
29423;BMP180;16399;51.686;8.684;2022-10-19T08:33:11;101069.00;;;11.90
29423;BMP180;16399;51.686;8.684;2022-10-19T08:36:15;101066.00;;;12.10
29423;BMP180;16399;51.686;8.684;2022-10-19T08:39:19;101067.00;;;12.40
29423;BMP180;16399;51.686;8.684;2022-10-19T08:42:28;101063.00;;;12.50
29423;BMP180;16399;51.686;8.684;2022-10-19T08:45:52;101054.00;;;12.60
29423;BMP180;16399;51.686;8.684;2022-10-19T08:48:53;101055.00;;;12.80
29423;BMP180;16399;51.686;8.684;2022-10-19T08:52:24;101045.00;;;12.90
29423;BMP180;16399;51.686;8.684;2022-10-19T08:55:27;101044.00;;;13.10
29423;BMP180;16399;51.686;8.684;2022-10-19T08:58:50;101038.00;;;13.20
29423;BMP180;16399;51.686;8.684;2022-10-19T09:01:53;101034.00;;;13.30
29423;BMP180;16399;51.686;8.684;2022-10-19T09:04:59;101038.00;;;13.40
29423;BMP180;16399;51.686;8.684;2022-10-19T09:08:01;101036.00;;;13.40
29423;BMP180;16399;51.686;8.684;2022-10-19T09:11:05;101039.00;;;13.50
29423;BMP180;16399;51.686;8.684;2022-10-19T09:14:34;101046.00;;;13.50
29423;BMP180;16399;51.686;8.684;2022-10-19T09:17:39;101037.00;;;13.40
29423;BMP180;16399;51.686;8.684;2022-10-19T09:20:43;101041.00;;;13.30
29423;BMP180;16399;51.686;8.684;2022-10-19T09:23:56;101050.00;;;13.50
29423;BMP180;16399;51.686;8.684;2022-10-19T09:26:59;101036.00;;;13.50
29423;BMP180;16399;51.686;8.684;2022-10-19T09:30:05;101042.00;;;13.50
29423;BMP180;16399;51.686;8.684;2022-10-19T09:33:11;101034.00;;;13.40
29423;BMP180;16399;51.686;8.684;2022-10-19T09:36:13;101041.00;;;13.40
29423;BMP180;16399;51.686;8.684;2022-10-19T09:39:15;101051.00;;;13.40
29423;BMP180;16399;51.686;8.684;2022-10-19T09:42:32;101041.00;;;13.50
29423;BMP180;16399;51.686;8.684;2022-10-19T09:45:56;101043.00;;;13.70
29423;BMP180;16399;51.686;8.684;2022-10-19T09:49:00;101050.00;;;13.70
29423;BMP180;16399;51.686;8.684;2022-10-19T09:52:04;101050.00;;;13.80
29423;BMP180;16399;51.686;8.684;2022-10-19T09:55:17;101056.00;;;13.80
29423;BMP180;16399;51.686;8.684;2022-10-19T09:58:19;101066.00;;;13.90
29423;BMP180;16399;51.686;8.684;2022-10-19T10:01:28;101054.00;;;13.90
29423;BMP180;16399;51.686;8.684;2022-10-19T10:04:26;101052.00;;;13.90
29423;BMP180;16399;51.686;8.684;2022-10-19T10:07:37;101058.00;;;13.90
29423;BMP180;16399;51.686;8.684;2022-10-19T10:10:43;101058.00;;;13.90
29423;BMP180;16399;51.686;8.684;2022-10-19T10:13:51;101062.00;;;13.90
29423;BMP180;16399;51.686;8.684;2022-10-19T10:17:02;101063.00;;;13.70
29423;BMP180;16399;51.686;8.684;2022-10-19T10:20:16;101054.00;;;13.80
29423;BMP180;16399;51.686;8.684;2022-10-19T10:23:19;101056.00;;;13.80
29423;BMP180;16399;51.686;8.684;2022-10-19T10:26:18;101058.00;;;13.90
29423;BMP180;16399;51.686;8.684;2022-10-19T10:29:28;101054.00;;;14.00
29423;BMP180;16399;51.686;8.684;2022-10-19T10:32:30;101053.00;;;14.00
29423;BMP180;16399;51.686;8.684;2022-10-19T10:35:34;101058.00;;;14.00
29423;BMP180;16399;51.686;8.684;2022-10-19T10:38:44;101051.00;;;13.90
29423;BMP180;16399;51.686;8.684;2022-10-19T10:41:44;101047.00;;;13.90
29423;BMP180;16399;51.686;8.684;2022-10-19T10:44:50;101038.00;;;13.80
29423;BMP180;16399;51.686;8.684;2022-10-19T10:47:53;101028.00;;;13.80
29423;BMP180;16399;51.686;8.684;2022-10-19T10:50:56;101024.00;;;13.90
29423;BMP180;16399;51.686;8.684;2022-10-19T10:54:23;101022.00;;;14.00
29423;BMP180;16399;51.686;8.684;2022-10-19T10:57:33;101010.00;;;14.10
29423;BMP180;16399;51.686;8.684;2022-10-19T11:00:32;101012.00;;;14.30
29423;BMP180;16399;51.686;8.684;2022-10-19T11:03:37;101009.00;;;14.30
29423;BMP180;16399;51.686;8.684;2022-10-19T11:06:44;101003.00;;;14.30
29423;BMP180;16399;51.686;8.684;2022-10-19T11:09:53;101005.00;;;14.30
29423;BMP180;16399;51.686;8.684;2022-10-19T11:13:27;100993.00;;;14.30
29423;BMP180;16399;51.686;8.684;2022-10-19T11:16:44;101017.00;;;14.30
29423;BMP180;16399;51.686;8.684;2022-10-19T11:19:47;101005.00;;;14.40
29423;BMP180;16399;51.686;8.684;2022-10-19T11:22:56;101002.00;;;14.40
29423;BMP180;16399;51.686;8.684;2022-10-19T11:29:25;100985.00;;;14.40
29423;BMP180;16399;51.686;8.684;2022-10-19T11:35:56;100966.00;;;15.00
29423;BMP180;16399;51.686;8.684;2022-10-19T11:49:12;100959.00;;;15.00
29423;BMP180;16399;51.686;8.684;2022-10-19T11:58:57;100955.00;;;14.50
29423;BMP180;16399;51.686;8.684;2022-10-19T12:02:09;100942.00;;;14.40
29423;BMP180;16399;51.686;8.684;2022-10-19T12:05:12;100938.00;;;14.50
29423;BMP180;16399;51.686;8.684;2022-10-19T12:08:27;100935.00;;;14.60
29423;BMP180;16399;51.686;8.684;2022-10-19T12:18:39;100923.00;;;14.50
29423;BMP180;16399;51.686;8.684;2022-10-19T12:21:42;100916.00;;;14.70
29423;BMP180;16399;51.686;8.684;2022-10-19T12:24:45;100928.00;;;14.80
29423;BMP180;16399;51.686;8.684;2022-10-19T12:27:49;100915.00;;;14.80
29423;BMP180;16399;51.686;8.684;2022-10-19T12:30:52;100917.00;;;14.90
29423;BMP180;16399;51.686;8.684;2022-10-19T12:37:43;100905.00;;;14.70
29423;BMP180;16399;51.686;8.684;2022-10-19T12:40:52;100903.00;;;14.70
29423;BMP180;16399;51.686;8.684;2022-10-19T12:44:00;100885.00;;;14.60
29423;BMP180;16399;51.686;8.684;2022-10-19T12:47:16;100897.00;;;14.50
29423;BMP180;16399;51.686;8.684;2022-10-19T12:50:36;100895.00;;;14.40
29423;BMP180;16399;51.686;8.684;2022-10-19T12:53:29;100892.00;;;14.40
29423;BMP180;16399;51.686;8.684;2022-10-19T12:56:34;100878.00;;;14.40
29423;BMP180;16399;51.686;8.684;2022-10-19T12:59:37;100881.00;;;14.40
29423;BMP180;16399;51.686;8.684;2022-10-19T13:02:40;100885.00;;;14.20
29423;BMP180;16399;51.686;8.684;2022-10-19T13:05:54;100883.00;;;14.30
29423;BMP180;16399;51.686;8.684;2022-10-19T13:19:11;100872.00;;;14.40
29423;BMP180;16399;51.686;8.684;2022-10-19T13:22:25;100867.00;;;14.40
29423;BMP180;16399;51.686;8.684;2022-10-19T13:25:34;100872.00;;;14.40
29423;BMP180;16399;51.686;8.684;2022-10-19T13:28:37;100864.00;;;14.30
29423;BMP180;16399;51.686;8.684;2022-10-19T13:31:40;100864.00;;;14.40
29423;BMP180;16399;51.686;8.684;2022-10-19T13:34:42;100877.00;;;14.40
29423;BMP180;16399;51.686;8.684;2022-10-19T13:37:44;100870.00;;;14.30
29423;BMP180;16399;51.686;8.684;2022-10-19T13:47:30;100854.00;;;14.10
29423;BMP180;16399;51.686;8.684;2022-10-19T13:50:44;100856.00;;;14.10
29423;BMP180;16399;51.686;8.684;2022-10-19T13:53:53;100851.00;;;14.10
29423;BMP180;16399;51.686;8.684;2022-10-19T14:00:17;100833.00;;;13.90
29423;BMP180;16399;51.686;8.684;2022-10-19T14:03:27;100828.00;;;13.90
29423;BMP180;16399;51.686;8.684;2022-10-19T14:10:04;100830.00;;;13.70
29423;BMP180;16399;51.686;8.684;2022-10-19T14:13:05;100816.00;;;13.70
29423;BMP180;16399;51.686;8.684;2022-10-19T14:16:20;100807.00;;;13.70
29423;BMP180;16399;51.686;8.684;2022-10-19T14:19:43;100812.00;;;13.60
29423;BMP180;16399;51.686;8.684;2022-10-19T14:22:37;100811.00;;;13.60
29423;BMP180;16399;51.686;8.684;2022-10-19T14:25:48;100808.00;;;13.60
29423;BMP180;16399;51.686;8.684;2022-10-19T14:28:53;100809.00;;;13.60
29423;BMP180;16399;51.686;8.684;2022-10-19T14:31:58;100809.00;;;13.50
29423;BMP180;16399;51.686;8.684;2022-10-19T14:35:04;100797.00;;;13.50
29423;BMP180;16399;51.686;8.684;2022-10-19T14:38:07;100792.00;;;13.40
29423;BMP180;16399;51.686;8.684;2022-10-19T14:44:43;100782.00;;;13.40
29423;BMP180;16399;51.686;8.684;2022-10-19T14:47:59;100797.00;;;13.40
29423;BMP180;16399;51.686;8.684;2022-10-19T14:51:08;100789.00;;;13.30
29423;BMP180;16399;51.686;8.684;2022-10-19T14:54:40;100784.00;;;13.30
29423;BMP180;16399;51.686;8.684;2022-10-19T14:57:40;100787.00;;;13.20
29423;BMP180;16399;51.686;8.684;2022-10-19T15:00:47;100780.00;;;13.10
29423;BMP180;16399;51.686;8.684;2022-10-19T15:03:49;100767.00;;;13.10
29423;BMP180;16399;51.686;8.684;2022-10-19T15:06:52;100782.00;;;13.00
29423;BMP180;16399;51.686;8.684;2022-10-19T15:09:58;100789.00;;;13.00
29423;BMP180;16399;51.686;8.684;2022-10-19T15:13:03;100790.00;;;13.00
29423;BMP180;16399;51.686;8.684;2022-10-19T15:19:38;100783.00;;;12.80
29423;BMP180;16399;51.686;8.684;2022-10-19T15:22:39;100792.00;;;12.70
29423;BMP180;16399;51.686;8.684;2022-10-19T15:25:41;100775.00;;;12.60
29423;BMP180;16399;51.686;8.684;2022-10-19T15:28:44;100780.00;;;12.60
29423;BMP180;16399;51.686;8.684;2022-10-19T15:31:47;100779.00;;;12.50
29423;BMP180;16399;51.686;8.684;2022-10-19T15:34:49;100770.00;;;12.40
29423;BMP180;16399;51.686;8.684;2022-10-19T15:38:01;100778.00;;;12.40
29423;BMP180;16399;51.686;8.684;2022-10-19T15:41:03;100762.00;;;12.30
29423;BMP180;16399;51.686;8.684;2022-10-19T15:44:27;100760.00;;;12.20
29423;BMP180;16399;51.686;8.684;2022-10-19T15:47:21;100764.00;;;12.10
29423;BMP180;16399;51.686;8.684;2022-10-19T15:50:33;100754.00;;;12.00
29423;BMP180;16399;51.686;8.684;2022-10-19T15:53:35;100746.00;;;12.00
29423;BMP180;16399;51.686;8.684;2022-10-19T15:56:38;100740.00;;;11.90
29423;BMP180;16399;51.686;8.684;2022-10-19T15:59:41;100744.00;;;11.80
29423;BMP180;16399;51.686;8.684;2022-10-19T16:02:43;100736.00;;;11.80
29423;BMP180;16399;51.686;8.684;2022-10-19T16:05:45;100733.00;;;11.70
29423;BMP180;16399;51.686;8.684;2022-10-19T16:08:48;100740.00;;;11.60
29423;BMP180;16399;51.686;8.684;2022-10-19T16:11:52;100724.00;;;11.50
29423;BMP180;16399;51.686;8.684;2022-10-19T16:14:56;100731.00;;;11.50
29423;BMP180;16399;51.686;8.684;2022-10-19T16:17:59;100738.00;;;11.50
29423;BMP180;16399;51.686;8.684;2022-10-19T16:21:02;100740.00;;;11.40
29423;BMP180;16399;51.686;8.684;2022-10-19T16:24:04;100739.00;;;11.40
29423;BMP180;16399;51.686;8.684;2022-10-19T16:27:07;100733.00;;;11.30
29423;BMP180;16399;51.686;8.684;2022-10-19T16:30:12;100728.00;;;11.20
29423;BMP180;16399;51.686;8.684;2022-10-19T16:33:14;100737.00;;;11.00
29423;BMP180;16399;51.686;8.684;2022-10-19T16:36:17;100728.00;;;11.10
29423;BMP180;16399;51.686;8.684;2022-10-19T16:39:22;100747.00;;;11.00
29423;BMP180;16399;51.686;8.684;2022-10-19T16:42:25;100733.00;;;10.90
29423;BMP180;16399;51.686;8.684;2022-10-19T16:45:28;100727.00;;;10.80
29423;BMP180;16399;51.686;8.684;2022-10-19T16:48:30;100728.00;;;10.70
29423;BMP180;16399;51.686;8.684;2022-10-19T16:51:35;100727.00;;;10.60
29423;BMP180;16399;51.686;8.684;2022-10-19T16:54:37;100741.00;;;10.60
29423;BMP180;16399;51.686;8.684;2022-10-19T16:57:40;100737.00;;;10.50
29423;BMP180;16399;51.686;8.684;2022-10-19T17:00:42;100736.00;;;10.50
29423;BMP180;16399;51.686;8.684;2022-10-19T17:03:45;100737.00;;;10.40
29423;BMP180;16399;51.686;8.684;2022-10-19T17:06:48;100741.00;;;10.30
29423;BMP180;16399;51.686;8.684;2022-10-19T17:09:50;100737.00;;;10.30
29423;BMP180;16399;51.686;8.684;2022-10-19T17:12:53;100740.00;;;10.20
29423;BMP180;16399;51.686;8.684;2022-10-19T17:15:55;100729.00;;;10.10
29423;BMP180;16399;51.686;8.684;2022-10-19T17:18:59;100729.00;;;10.10
29423;BMP180;16399;51.686;8.684;2022-10-19T17:22:01;100720.00;;;10.00
29423;BMP180;16399;51.686;8.684;2022-10-19T17:25:05;100712.00;;;10.00
29423;BMP180;16399;51.686;8.684;2022-10-19T17:28:07;100714.00;;;9.90
29423;BMP180;16399;51.686;8.684;2022-10-19T17:31:13;100710.00;;;9.90
29423;BMP180;16399;51.686;8.684;2022-10-19T17:34:16;100719.00;;;9.80
29423;BMP180;16399;51.686;8.684;2022-10-19T17:37:18;100717.00;;;9.80
29423;BMP180;16399;51.686;8.684;2022-10-19T17:40:21;100715.00;;;9.70
29423;BMP180;16399;51.686;8.684;2022-10-19T17:43:23;100715.00;;;9.70
29423;BMP180;16399;51.686;8.684;2022-10-19T17:46:32;100706.00;;;9.60
29423;BMP180;16399;51.686;8.684;2022-10-19T17:49:31;100712.00;;;9.60
29423;BMP180;16399;51.686;8.684;2022-10-19T17:52:33;100710.00;;;9.50
29423;BMP180;16399;51.686;8.684;2022-10-19T17:55:36;100698.00;;;9.50
29423;BMP180;16399;51.686;8.684;2022-10-19T17:58:39;100707.00;;;9.50
29423;BMP180;16399;51.686;8.684;2022-10-19T18:01:41;100697.00;;;9.50
29423;BMP180;16399;51.686;8.684;2022-10-19T18:04:43;100699.00;;;9.60
29423;BMP180;16399;51.686;8.684;2022-10-19T18:07:45;100702.00;;;9.60
29423;BMP180;16399;51.686;8.684;2022-10-19T18:10:56;100691.00;;;9.60
29423;BMP180;16399;51.686;8.684;2022-10-19T18:13:57;100691.00;;;9.70
29423;BMP180;16399;51.686;8.684;2022-10-19T18:16:59;100676.00;;;9.70
29423;BMP180;16399;51.686;8.684;2022-10-19T18:20:01;100681.00;;;9.80
29423;BMP180;16399;51.686;8.684;2022-10-19T18:23:04;100669.00;;;9.80
29423;BMP180;16399;51.686;8.684;2022-10-19T18:26:12;100657.00;;;9.90
29423;BMP180;16399;51.686;8.684;2022-10-19T18:29:17;100660.00;;;9.90
29423;BMP180;16399;51.686;8.684;2022-10-19T18:32:21;100655.00;;;9.90
29423;BMP180;16399;51.686;8.684;2022-10-19T18:35:23;100655.00;;;10.00
29423;BMP180;16399;51.686;8.684;2022-10-19T18:38:25;100652.00;;;10.00
29423;BMP180;16399;51.686;8.684;2022-10-19T18:41:28;100649.00;;;10.10
29423;BMP180;16399;51.686;8.684;2022-10-19T18:44:31;100647.00;;;10.10
29423;BMP180;16399;51.686;8.684;2022-10-19T18:47:33;100651.00;;;10.10
29423;BMP180;16399;51.686;8.684;2022-10-19T18:50:36;100657.00;;;10.10
29423;BMP180;16399;51.686;8.684;2022-10-19T18:53:38;100646.00;;;10.00